createdAt,value
2023-04-02T00:01:46.846Z,100782.72
2023-04-02T00:05:58.515Z,100786.41
2023-04-02T00:10:57.094Z,100802.06
2023-04-02T00:15:13.049Z,100811.06
2023-04-02T00:19:30.817Z,100834.94
2023-04-02T00:23:44.218Z,100828.16
2023-04-02T00:27:56.695Z,100842.16
2023-04-02T00:32:20.126Z,100845.41
2023-04-02T00:36:36.551Z,100860.22
2023-04-02T00:40:49.781Z,100852.41
2023-04-02T00:45:02.282Z,100870.50
2023-04-02T00:49:34.900Z,100868.06
2023-04-02T00:53:48.762Z,100878.06
2023-04-02T00:58:01.574Z,100894.28
2023-04-02T01:02:17.473Z,100889.13
2023-04-02T01:06:34.249Z,100895.13
2023-04-02T01:11:11.796Z,100915.38
2023-04-02T01:15:53.008Z,100916.25
2023-04-02T01:20:42.185Z,100923.03
2023-04-02T01:24:58.131Z,100917.84
2023-04-02T01:29:14.166Z,100929.91
2023-04-02T01:33:30.981Z,100947.16
2023-04-02T01:37:58.623Z,100967.50
2023-04-02T01:42:33.326Z,100954.09
2023-04-02T01:46:48.803Z,100967.63
2023-04-02T01:51:05.382Z,100978.75
2023-04-02T01:55:33.794Z,100979.31
2023-04-02T01:59:46.158Z,101000.06
2023-04-02T02:03:58.150Z,100995.34
2023-04-02T02:08:27.617Z,101003.56
2023-04-02T02:12:39.508Z,101024.72
2023-04-02T02:16:53.934Z,101017.31
2023-04-02T02:21:09.538Z,101027.59
2023-04-02T02:25:27.963Z,101030.31
2023-04-02T02:29:42.818Z,101048.19
2023-04-02T02:34:00.876Z,101061.31
2023-04-02T02:38:35.834Z,101054.03
2023-04-02T02:43:01.459Z,101075.66
2023-04-02T02:47:34.998Z,101086.44
2023-04-02T02:52:15.474Z,101090.72
2023-04-02T02:56:53.626Z,101099.47
2023-04-02T03:01:05.414Z,101111.06
2023-04-02T03:05:22.200Z,101114.22
2023-04-02T03:09:53.762Z,101123.16
2023-04-02T03:14:33.903Z,101133.53
2023-04-02T03:18:54.867Z,101135.47
2023-04-02T03:23:30.735Z,101153.13
2023-04-02T03:27:46.689Z,101156.63
2023-04-02T03:32:05.636Z,101144.88
2023-04-02T03:36:50.045Z,101171.34
2023-04-02T03:41:10.317Z,101166.75
2023-04-02T03:45:27.009Z,101184.50
2023-04-02T03:50:13.469Z,101207.59
2023-04-02T03:54:26.116Z,101214.66
2023-04-02T03:58:47.401Z,101225.41
2023-04-02T04:03:31.137Z,101238.66
2023-04-02T04:07:44.433Z,101251.91
2023-04-02T04:12:22.194Z,101254.19
2023-04-02T04:16:43.010Z,101259.06
2023-04-02T04:21:05.981Z,101268.16
2023-04-02T04:25:33.997Z,101273.66
2023-04-02T04:30:10.394Z,101292.13
2023-04-02T04:34:36.872Z,101298.88
2023-04-02T04:38:55.648Z,101321.22
2023-04-02T04:43:17.824Z,101333.53
2023-04-02T04:47:36.890Z,101334.47
2023-04-02T04:51:54.670Z,101347.66
2023-04-02T04:56:18.663Z,101363.31
2023-04-02T05:00:49.659Z,101374.13
2023-04-02T05:05:04.125Z,101383.13
2023-04-02T05:09:36.168Z,101392.31
2023-04-02T05:14:00.644Z,101402.47
2023-04-02T05:18:25.844Z,101414.34
2023-04-02T05:22:50.288Z,101423.34
2023-04-02T05:27:13.002Z,101443.22
2023-04-02T05:31:31.207Z,101449.88
2023-04-02T05:35:49.569Z,101455.06
2023-04-02T05:40:14.663Z,101458.75
2023-04-02T05:44:30.810Z,101464.25
2023-04-02T05:48:45.074Z,101479.22
2023-04-02T05:53:17.775Z,101491.03
2023-04-02T05:57:44.475Z,101496.56
2023-04-02T06:02:22.858Z,101501.72
2023-04-02T06:06:43.622Z,101514.38
2023-04-02T06:11:06.122Z,101519.50
2023-04-02T06:15:21.578Z,101533.00
2023-04-02T06:19:38.483Z,101546.97
2023-04-02T06:24:01.857Z,101550.28
2023-04-02T06:28:20.344Z,101559.25
2023-04-02T06:32:37.228Z,101574.59
2023-04-02T06:36:54.765Z,101597.88
2023-04-02T06:41:17.470Z,101608.84
2023-04-02T06:45:51.989Z,101605.16
2023-04-02T06:50:18.992Z,101617.81
2023-04-02T06:54:31.411Z,101631.47
2023-04-02T06:58:48.758Z,101636.09
2023-04-02T07:03:04.926Z,101645.75
2023-04-02T07:07:16.786Z,101658.06
2023-04-02T07:11:31.094Z,101670.19
2023-04-02T07:15:48.860Z,101671.91
2023-04-02T07:20:00.876Z,101680.03
2023-04-02T07:24:13.128Z,101692.34
2023-04-02T07:28:24.987Z,101698.22
2023-04-02T07:32:38.307Z,101697.72
2023-04-02T07:36:49.964Z,101716.72
2023-04-02T07:41:06.570Z,101729.72
2023-04-02T07:45:18.294Z,101726.91
2023-04-02T07:49:29.961Z,101732.09
2023-04-02T07:53:42.741Z,101725.44
2023-04-02T07:57:56.844Z,101736.59
2023-04-02T08:02:19.387Z,101733.78
2023-04-02T08:06:31.463Z,101750.09
2023-04-02T08:10:43.298Z,101751.09
2023-04-02T08:14:54.970Z,101758.91
2023-04-02T08:19:06.691Z,101779.25
2023-04-02T08:23:18.429Z,101787.72
2023-04-02T08:27:30.168Z,101798.91
2023-04-02T08:31:41.877Z,101815.03
2023-04-02T08:35:53.724Z,101822.69
2023-04-02T08:40:07.452Z,101818.56
2023-04-02T08:44:36.768Z,101815.28
2023-04-02T08:48:55.488Z,101824.44
2023-04-02T08:53:16.745Z,101837.81
2023-04-02T08:57:47.303Z,101856.97
2023-04-02T09:02:03.893Z,101854.13
2023-04-02T09:06:19.409Z,101872.13
2023-04-02T09:10:42.480Z,101874.97
2023-04-02T09:15:18.572Z,101881.13
2023-04-02T09:19:37.679Z,101889.81
2023-04-02T09:23:50.137Z,101897.44
2023-04-02T09:28:04.261Z,101899.44
2023-04-02T09:33:07.662Z,101883.41
2023-04-02T09:37:22.998Z,101914.03
2023-04-02T09:41:37.031Z,101930.28
2023-04-02T09:46:05.080Z,101931.63
2023-04-02T09:50:23.412Z,101924.09
2023-04-02T09:54:42.033Z,101944.75
2023-04-02T09:59:17.307Z,101956.28
2023-04-02T10:03:43.157Z,101963.00
2023-04-02T10:08:07.210Z,101967.69
2023-04-02T10:12:18.939Z,101965.00
2023-04-02T10:16:36.216Z,101977.34
2023-04-02T10:20:51.404Z,101986.91
2023-04-02T10:25:13.616Z,101965.31
2023-04-02T10:29:46.574Z,101996.75
2023-04-02T10:34:10.059Z,102001.94
2023-04-02T10:38:42.655Z,101998.19
2023-04-02T10:43:07.216Z,102000.63
2023-04-02T10:47:18.892Z,102015.84
2023-04-02T10:51:38.894Z,102017.81
2023-04-02T10:55:58.092Z,102016.94
2023-04-02T11:00:19.010Z,102015.09
2023-04-02T11:04:46.329Z,102012.63
2023-04-02T11:09:05.318Z,102026.31
2023-04-02T11:13:22.827Z,102026.50
2023-04-02T11:17:34.735Z,102031.06
2023-04-02T11:21:58.788Z,102035.16
2023-04-02T11:26:34.817Z,102032.44
2023-04-02T11:30:48.804Z,102034.28
2023-04-02T11:35:32.140Z,102035.56
2023-04-02T11:39:59.666Z,102030.28
2023-04-02T11:44:23.099Z,102050.44
2023-04-02T11:48:36.505Z,102055.66
2023-04-02T11:52:48.525Z,102068.38
2023-04-02T11:57:24.554Z,102055.09
2023-04-02T12:02:04.030Z,102072.97
2023-04-02T12:06:42.401Z,102087.00
2023-04-02T12:11:02.398Z,102081.47
2023-04-02T12:15:26.108Z,102095.81
2023-04-02T12:19:37.831Z,102091.22
2023-04-02T12:23:53.640Z,102071.75
2023-04-02T12:28:09.475Z,102089.00
2023-04-02T12:32:28.514Z,102099.56
2023-04-02T12:36:55.159Z,102088.84
2023-04-02T12:41:30.379Z,102117.16
2023-04-02T12:45:42.767Z,102118.72
2023-04-02T12:49:56.830Z,102120.09
2023-04-02T12:54:15.163Z,102098.59
2023-04-02T12:58:45.611Z,102114.84
2023-04-02T13:03:04.542Z,102133.31
2023-04-02T13:07:19.069Z,102130.94
2023-04-02T13:11:39.485Z,102147.84
2023-04-02T13:16:05.401Z,102127.09
2023-04-02T13:20:38.582Z,102122.56
2023-04-02T13:24:50.423Z,102106.56
2023-04-02T13:29:29.360Z,102125.34
2023-04-02T13:33:40.945Z,102125.41
2023-04-02T13:37:52.610Z,102117.19
2023-04-02T13:42:06.482Z,102115.34
2023-04-02T13:46:43.371Z,102142.22
2023-04-02T13:50:55.021Z,102117.91
2023-04-02T13:55:06.854Z,102120.41
2023-04-02T13:59:18.477Z,102142.22
2023-04-02T14:03:30.341Z,102140.94
2023-04-02T14:07:48.117Z,102148.56
2023-04-02T14:12:03.474Z,102138.94
2023-04-02T14:16:31.944Z,102160.59
2023-04-02T14:21:21.332Z,102159.97
2023-04-02T14:25:38.953Z,102174.75
2023-04-02T14:30:04.791Z,102169.06
2023-04-02T14:34:48.770Z,102184.75
2023-04-02T14:39:06.155Z,102163.84
2023-04-02T14:43:33.202Z,102184.34
2023-04-02T14:47:53.307Z,102178.44
2023-04-02T14:52:10.780Z,102179.47
2023-04-02T14:56:25.127Z,102169.72
2023-04-02T15:00:51.576Z,102168.16
2023-04-02T15:05:17.699Z,102194.09
2023-04-02T15:09:38.595Z,102209.25
2023-04-02T15:14:05.210Z,102196.25
2023-04-02T15:18:18.082Z,102197.09
2023-04-02T15:22:38.583Z,102208.59
2023-04-02T15:27:12.040Z,102208.47
2023-04-02T15:31:29.908Z,102208.19
2023-04-02T15:35:54.935Z,102207.94
2023-04-02T15:40:20.636Z,102204.78
2023-04-02T15:44:33.935Z,102217.47
2023-04-02T15:48:57.594Z,102215.53
2023-04-02T15:53:33.066Z,102226.72
2023-04-02T15:58:10.933Z,102220.81
2023-04-02T16:02:31.602Z,102234.16
2023-04-02T16:07:09.154Z,102232.63
2023-04-02T16:11:26.036Z,102254.13
2023-04-02T16:15:45.126Z,102242.97
2023-04-02T16:20:07.841Z,102259.72
2023-04-02T16:24:19.771Z,102251.47
2023-04-02T16:29:01.710Z,102255.19
2023-04-02T16:33:25.489Z,102250.25
2023-04-02T16:37:43.992Z,102277.19
2023-04-02T16:42:04.718Z,102278.94
2023-04-02T16:46:42.804Z,102297.47
2023-04-02T16:51:04.241Z,102302.53
2023-04-02T16:55:19.699Z,102299.41
2023-04-02T16:59:44.182Z,102312.25
2023-04-02T17:04:24.908Z,102321.72
2023-04-02T17:08:44.052Z,102324.56
2023-04-02T17:13:14.261Z,102329.94
2023-04-02T17:17:25.917Z,102309.44
2023-04-02T17:21:40.164Z,102337.16
2023-04-02T17:25:58.931Z,102335.66
2023-04-02T17:30:35.025Z,102339.78
2023-04-02T17:34:46.780Z,102337.66
2023-04-02T17:39:32.499Z,102340.56
2023-04-02T17:44:08.730Z,102337.97
2023-04-02T17:48:31.368Z,102351.56
2023-04-02T17:52:53.408Z,102359.28
2023-04-02T17:57:32.393Z,102375.72
2023-04-02T18:02:01.637Z,102365.44
2023-04-02T18:06:27.841Z,102384.38
2023-04-02T18:10:59.298Z,102395.25
2023-04-02T18:15:48.542Z,102410.38
2023-04-02T18:20:03.746Z,102402.16
2023-04-02T18:24:28.385Z,102404.19
2023-04-02T18:29:07.230Z,102423.44
2023-04-02T18:33:54.226Z,102429.16
2023-04-02T18:38:33.682Z,102430.63
2023-04-02T18:43:12.538Z,102425.25
2023-04-02T18:47:48.543Z,102448.31
2023-04-02T18:52:12.579Z,102440.25
2023-04-02T18:56:25.408Z,102432.19
2023-04-02T19:00:42.925Z,102465.31
2023-04-02T19:05:12.835Z,102467.63
2023-04-02T19:09:47.560Z,102454.22
2023-04-02T19:14:00.976Z,102469.22
2023-04-02T19:18:38.643Z,102494.13
2023-04-02T19:23:02.242Z,102476.47
2023-04-02T19:27:32.785Z,102475.44
2023-04-02T19:31:50.486Z,102504.72
2023-04-02T19:36:24.868Z,102501.66
2023-04-02T19:40:47.949Z,102510.28
2023-04-02T19:45:00.734Z,102520.94
2023-04-02T19:49:22.686Z,102529.41
2023-04-02T19:53:35.332Z,102517.78
2023-04-02T19:57:46.911Z,102522.88
2023-04-02T20:02:05.825Z,102527.88
2023-04-02T20:06:18.185Z,102528.91
2023-04-02T20:10:29.765Z,102535.94
2023-04-02T20:14:41.489Z,102532.88
2023-04-02T20:18:53.186Z,102552.75
2023-04-02T20:23:05.503Z,102530.59
2023-04-02T20:27:17.883Z,102536.72
2023-04-02T20:31:29.795Z,102531.44
2023-04-02T20:35:41.533Z,102543.78
2023-04-02T20:39:53.388Z,102547.28
2023-04-02T20:44:05.011Z,102551.09
2023-04-02T20:48:16.915Z,102560.94
2023-04-02T20:52:30.252Z,102557.91
2023-04-02T20:56:43.165Z,102570.53
2023-04-02T21:00:54.752Z,102586.22
2023-04-02T21:05:06.857Z,102580.97
2023-04-02T21:09:19.583Z,102589.69
2023-04-02T21:13:33.361Z,102583.28
2023-04-02T21:17:45.124Z,102590.03
2023-04-02T21:21:56.731Z,102595.50
2023-04-02T21:26:35.115Z,102609.38
2023-04-02T21:30:46.859Z,102600.31
2023-04-02T21:34:58.534Z,102623.03
2023-04-02T21:39:23.229Z,102609.31
2023-04-02T21:43:34.844Z,102623.38
2023-04-02T21:47:46.527Z,102605.72
2023-04-02T21:51:58.079Z,102616.53
2023-04-02T21:56:16.705Z,102633.34
2023-04-02T22:00:28.312Z,102640.66
2023-04-02T22:04:41.401Z,102624.00
2023-04-02T22:09:01.552Z,102640.69
2023-04-02T22:13:13.104Z,102633.53
2023-04-02T22:17:24.699Z,102631.31
2023-04-02T22:21:37.462Z,102625.28
2023-04-02T22:25:49.037Z,102627.41
2023-04-02T22:30:00.835Z,102631.34
2023-04-02T22:34:12.599Z,102630.06
2023-04-02T22:38:24.347Z,102638.06
2023-04-02T22:42:38.257Z,102642.69
2023-04-02T22:46:49.848Z,102641.44
2023-04-02T22:51:01.421Z,102640.56
2023-04-02T22:55:15.396Z,102645.19
2023-04-02T22:59:26.939Z,102646.88
2023-04-02T23:03:38.751Z,102661.16
2023-04-02T23:07:50.600Z,102638.72
2023-04-02T23:12:02.205Z,102652.31
2023-04-02T23:16:14.957Z,102654.44
2023-04-02T23:20:26.547Z,102660.69
2023-04-02T23:24:38.134Z,102661.66
2023-04-02T23:28:50.957Z,102667.25
2023-04-02T23:33:04.615Z,102666.00
2023-04-02T23:37:16.832Z,102666.13
2023-04-02T23:41:30.498Z,102674.81
2023-04-02T23:45:46.931Z,102670.03
2023-04-02T23:49:58.565Z,102672.13
2023-04-02T23:54:14.417Z,102660.75
2023-04-02T23:58:26.034Z,102679.50
